Aloha, Oregon
Current Conditions -  °F | °C
As of 4:34 PM on Saturday 25 Oct 2014 (Local Time) from KHIO Reporting Station
Overcast Overcast  
Wind Chill: 58°   Ceiling: 1700
Heat Index: 58°   Visibility: 10mi
Dew Point: 55°   Wind: 22mph
Humidity: 90%   Direction: 170°S
Pressure: 29.41"   Gusts: 28mph
Location:  45.49°N, 122.86°W
Report Text: KHIO 252334Z 17019G24KT 10SM BKN017 BKN026 OVC055 14/13 A2941 RMK AO2 PK WND 18028/2305 RAE32 P0002 T01440128
Loading
Personal Weather Stations






























Interactive Weather Map New forecast layout! Learn more

10-Day Weather Forecast

Advertisements
Track Severe Weather on mobile